createdAt,value
2019-03-12T00:01:11.559Z,4.35
2019-03-12T00:03:42.498Z,12.73
2019-03-12T00:06:13.814Z,6.47
2019-03-12T00:08:44.980Z,6.17
2019-03-12T00:11:16.443Z,9.83
2019-03-12T00:13:47.716Z,9.23
2019-03-12T00:16:19.200Z,10.05
2019-03-12T00:18:51.583Z,7.45
2019-03-12T00:21:24.542Z,11.48
2019-03-12T00:23:58.372Z,10.50
2019-03-12T00:26:29.306Z,7.92
2019-03-12T00:29:01.301Z,8.13
2019-03-12T00:31:32.654Z,7.78
2019-03-12T00:34:04.277Z,7.37
2019-03-12T00:36:39.497Z,5.85
2019-03-12T00:39:12.147Z,9.18
2019-03-12T00:41:44.318Z,6.08
2019-03-12T00:44:15.501Z,8.68
2019-03-12T00:46:47.224Z,9.85
2019-03-12T00:49:19.021Z,9.30
2019-03-12T00:51:51.265Z,7.00
2019-03-12T00:54:23.261Z,7.28
2019-03-12T00:56:55.172Z,6.90
2019-03-12T00:59:26.561Z,9.60
2019-03-12T01:01:57.714Z,7.22
2019-03-12T01:04:29.504Z,12.35
2019-03-12T01:07:00.886Z,5.35
2019-03-12T01:09:33.293Z,6.10
2019-03-12T01:12:04.467Z,5.83
2019-03-12T01:14:36.259Z,8.80
2019-03-12T01:17:08.067Z,7.12
2019-03-12T01:19:38.436Z,9.20
2019-03-12T01:22:11.263Z,11.70
2019-03-12T01:24:45.024Z,11.75
2019-03-12T01:27:16.546Z,5.62
2019-03-12T01:29:49.155Z,11.45
2019-03-12T01:32:19.977Z,3.85
2019-03-12T01:34:51.770Z,11.30
2019-03-12T01:37:22.952Z,11.85
2019-03-12T01:39:53.876Z,8.03
2019-03-12T01:42:26.402Z,12.37
2019-03-12T01:44:59.632Z,12.85
2019-03-12T01:47:32.168Z,9.33
2019-03-12T01:50:04.005Z,6.75
2019-03-12T01:52:35.660Z,8.18
2019-03-12T01:55:09.515Z,10.60
2019-03-12T01:57:41.849Z,7.28
2019-03-12T02:00:19.326Z,11.15
2019-03-12T02:02:52.933Z,6.03
2019-03-12T02:05:25.137Z,10.55
2019-03-12T02:07:56.872Z,13.58
2019-03-12T02:24:14.828Z,6.80
2019-03-12T02:26:45.478Z,12.18
2019-03-12T02:29:16.822Z,9.00
2019-03-12T02:31:49.127Z,13.10
2019-03-12T02:34:20.835Z,9.78
2019-03-12T02:36:53.892Z,7.22
2019-03-12T02:39:27.588Z,8.75
2019-03-12T02:41:59.632Z,13.55
2019-03-12T02:44:30.703Z,16.65
2019-03-12T02:47:07.969Z,6.97
2019-03-12T02:49:39.367Z,9.08
2019-03-12T02:52:11.552Z,15.25
2019-03-12T02:54:42.812Z,11.45
2019-03-12T02:57:20.077Z,9.65
2019-03-12T02:59:52.710Z,12.35
2019-03-12T03:02:25.262Z,7.15
2019-03-12T03:04:57.588Z,13.28
2019-03-12T03:07:46.942Z,13.00
2019-03-12T03:10:20.955Z,12.80
2019-03-12T03:12:58.081Z,12.20
2019-03-12T03:15:34.038Z,8.33
2019-03-12T03:18:23.054Z,17.15
2019-03-12T03:20:55.545Z,15.58
2019-03-12T03:23:28.674Z,14.45
2019-03-12T03:26:16.307Z,9.08
2019-03-12T03:28:48.255Z,12.05
2019-03-12T03:34:40.973Z,17.62
2019-03-12T03:37:12.133Z,18.07
2019-03-12T03:40:01.949Z,20.72
2019-03-12T03:42:23.539Z,12.68
2019-03-12T03:44:54.517Z,18.75
2019-03-12T03:47:26.570Z,17.32
2019-03-12T03:50:05.719Z,14.33
2019-03-12T03:52:39.627Z,18.23
2019-03-12T03:55:35.161Z,19.48
2019-03-12T03:58:39.545Z,17.15
2019-03-12T04:04:36.830Z,14.83
2019-03-12T04:07:14.793Z,21.02
2019-03-12T04:09:48.433Z,17.20
2019-03-12T04:12:20.323Z,19.70
2019-03-12T04:14:56.368Z,20.30
2019-03-12T04:17:28.328Z,20.85
2019-03-12T04:20:04.679Z,24.15
2019-03-12T04:22:38.975Z,30.45
2019-03-12T04:25:11.315Z,23.50
2019-03-12T04:27:43.053Z,31.77
2019-03-12T04:30:16.054Z,30.12
2019-03-12T04:32:48.006Z,41.68
2019-03-12T04:35:36.443Z,34.18
2019-03-12T04:38:07.799Z,53.78
2019-03-12T04:40:39.773Z,64.87
2019-03-12T04:46:37.475Z,51.88
2019-03-12T04:49:09.097Z,90.53
2019-03-12T04:51:40.261Z,81.15
2019-03-12T04:54:12.457Z,85.87
2019-03-12T04:56:44.205Z,118.25
2019-03-12T04:59:15.511Z,62.35
2019-03-12T05:01:46.290Z,85.77
2019-03-12T05:04:18.764Z,93.03
2019-03-12T05:06:54.534Z,83.42
2019-03-12T05:09:25.700Z,103.85
2019-03-12T05:11:56.881Z,67.10
2019-03-12T05:14:29.874Z,61.45
2019-03-12T05:17:04.461Z,62.60
2019-03-12T05:19:36.683Z,69.95
2019-03-12T05:22:12.488Z,63.58
2019-03-12T05:28:10.368Z,47.48
2019-03-12T05:30:42.162Z,73.15
2019-03-12T05:33:13.608Z,45.95
2019-03-12T05:35:44.482Z,37.15
2019-03-12T05:38:15.651Z,28.27
2019-03-12T05:40:46.024Z,47.03
2019-03-12T05:43:17.929Z,38.58
2019-03-12T05:49:24.926Z,84.83
2019-03-12T05:51:55.980Z,58.42
2019-03-12T05:54:27.207Z,78.22
2019-03-12T05:56:58.771Z,54.77
2019-03-12T05:59:30.221Z,87.30
2019-03-12T06:02:01.364Z,81.10
2019-03-12T06:04:34.234Z,48.55
2019-03-12T06:07:05.976Z,60.00
2019-03-12T06:09:38.228Z,51.68
2019-03-12T06:12:09.853Z,65.97
2019-03-12T06:14:41.025Z,49.48
2019-03-12T06:17:12.483Z,42.83
2019-03-12T06:19:43.962Z,36.13
2019-03-12T06:22:16.175Z,45.80
2019-03-12T06:24:47.994Z,37.37
2019-03-12T06:27:19.925Z,36.23
2019-03-12T06:29:51.141Z,40.77
2019-03-12T06:32:28.279Z,40.27
2019-03-12T06:48:22.153Z,40.15
2019-03-12T06:51:53.253Z,37.13
2019-03-12T06:54:35.714Z,36.65
2019-03-12T06:57:08.191Z,34.78
2019-03-12T06:59:40.450Z,36.67
2019-03-12T07:02:23.879Z,38.73
2019-03-12T07:05:07.414Z,37.40
2019-03-12T07:07:45.891Z,31.63
2019-03-12T07:10:20.276Z,33.40
2019-03-12T07:12:57.752Z,35.57
2019-03-12T07:15:30.957Z,37.97
2019-03-12T07:18:06.055Z,33.60
2019-03-12T07:20:54.474Z,30.93
2019-03-12T07:23:33.687Z,44.15
2019-03-12T07:26:23.086Z,34.70
2019-03-12T07:28:59.748Z,31.68
2019-03-12T07:31:33.759Z,32.57
2019-03-12T07:34:08.175Z,33.47
2019-03-12T07:37:38.575Z,39.37
2019-03-12T07:40:27.308Z,25.88
2019-03-12T07:54:00.043Z,30.47
2019-03-12T07:57:30.855Z,24.43
2019-03-12T08:00:03.984Z,25.77
2019-03-12T08:02:54.829Z,25.57
2019-03-12T08:05:32.594Z,18.80
2019-03-12T08:08:09.859Z,27.07
2019-03-12T08:11:16.475Z,26.43
2019-03-12T08:13:50.398Z,18.70
2019-03-12T08:16:23.843Z,24.53
2019-03-12T08:19:24.853Z,20.00
2019-03-12T08:23:17.009Z,20.37
2019-03-12T08:25:53.400Z,19.90
2019-03-12T08:28:30.411Z,17.93
2019-03-12T08:31:04.662Z,18.33
2019-03-12T08:33:58.721Z,13.17
2019-03-12T08:36:46.274Z,19.87
2019-03-12T08:39:49.072Z,21.47
2019-03-12T08:42:39.335Z,15.97
2019-03-12T08:45:20.676Z,14.37
2019-03-12T08:48:05.496Z,13.37
2019-03-12T08:50:45.141Z,23.80
2019-03-12T08:53:20.615Z,15.87
2019-03-12T08:56:00.367Z,16.83
2019-03-12T08:58:34.494Z,14.93
2019-03-12T09:01:25.568Z,14.93
2019-03-12T09:04:00.875Z,15.60
2019-03-12T09:06:39.292Z,15.20
2019-03-12T09:09:19.406Z,16.50
2019-03-12T09:12:09.284Z,15.73
2019-03-12T09:14:48.292Z,17.63
2019-03-12T09:17:37.231Z,23.37
2019-03-12T09:20:12.089Z,11.50
2019-03-12T09:22:48.798Z,17.17
2019-03-12T09:25:34.099Z,13.93
2019-03-12T09:28:13.626Z,16.53
2019-03-12T09:30:50.764Z,14.80
2019-03-12T09:33:40.599Z,16.57
2019-03-12T09:36:13.592Z,18.10
2019-03-12T09:42:32.342Z,12.00
2019-03-12T09:45:08.282Z,18.97
2019-03-12T09:47:52.613Z,12.50
2019-03-12T09:50:26.084Z,18.30
2019-03-12T09:52:58.232Z,9.40
2019-03-12T09:55:39.836Z,12.63
2019-03-12T09:58:11.824Z,10.77
2019-03-12T10:00:50.533Z,14.53
2019-03-12T10:03:33.269Z,14.03
2019-03-12T10:06:06.938Z,9.50
2019-03-12T10:08:40.251Z,11.60
2019-03-12T10:11:12.235Z,13.00
2019-03-12T10:13:50.717Z,13.43
2019-03-12T10:16:23.381Z,16.27
2019-03-12T10:18:59.409Z,15.73
2019-03-12T10:21:32.325Z,17.27
2019-03-12T10:24:07.347Z,14.67
2019-03-12T10:26:40.889Z,14.47
2019-03-12T10:29:14.038Z,15.23
2019-03-12T10:32:00.321Z,13.47
2019-03-12T10:34:33.250Z,15.00
2019-03-12T10:37:16.504Z,13.13
2019-03-12T10:40:06.818Z,8.63
2019-03-12T10:42:45.299Z,13.83
2019-03-12T10:45:24.139Z,15.40
2019-03-12T10:47:56.971Z,13.13
2019-03-12T10:50:33.078Z,16.53
2019-03-12T10:56:28.994Z,14.10
2019-03-12T10:59:01.477Z,15.30
2019-03-12T11:01:33.367Z,17.53
2019-03-12T11:04:04.478Z,19.67
2019-03-12T11:06:35.961Z,15.73
2019-03-12T11:09:08.029Z,14.37
2019-03-12T11:11:39.217Z,17.77
2019-03-12T11:14:09.798Z,19.57
2019-03-12T11:16:41.254Z,22.27
2019-03-12T11:19:12.647Z,18.77
2019-03-12T11:21:46.055Z,19.87
2019-03-12T11:24:16.813Z,16.17
2019-03-12T11:26:47.799Z,18.40
2019-03-12T11:29:19.499Z,21.30
2019-03-12T11:31:51.181Z,15.93
2019-03-12T11:34:23.009Z,17.47
2019-03-12T11:36:54.527Z,15.53
2019-03-12T11:39:26.263Z,16.50
2019-03-12T11:42:03.743Z,19.33
2019-03-12T11:44:37.237Z,22.47
2019-03-12T11:47:09.006Z,26.20
2019-03-12T11:49:44.249Z,20.10
2019-03-12T11:52:17.224Z,20.90
2019-03-12T11:54:53.978Z,14.77
2019-03-12T11:57:28.417Z,24.53
2019-03-12T12:00:03.221Z,19.03
2019-03-12T12:02:37.719Z,21.10
2019-03-12T12:05:09.780Z,18.87
2019-03-12T12:07:40.376Z,25.50
2019-03-12T12:10:19.166Z,13.87
2019-03-12T12:12:56.463Z,17.47
2019-03-12T12:15:30.884Z,22.27
2019-03-12T12:18:03.207Z,19.10
2019-03-12T12:20:35.373Z,20.57
2019-03-12T12:23:10.118Z,15.27
2019-03-12T12:25:42.821Z,20.20
2019-03-12T12:28:14.627Z,21.63
2019-03-12T12:30:44.950Z,19.47
2019-03-12T12:33:17.656Z,18.40
2019-03-12T12:35:54.960Z,17.57
2019-03-12T12:38:28.411Z,14.77
2019-03-12T12:41:02.213Z,13.53
2019-03-12T12:43:35.735Z,16.70
2019-03-12T12:46:10.847Z,16.67
2019-03-12T12:48:44.307Z,11.67
2019-03-12T12:51:27.682Z,14.47
2019-03-12T12:54:00.932Z,12.13
2019-03-12T12:56:31.784Z,13.83
2019-03-12T12:59:03.106Z,17.47
2019-03-12T13:01:34.947Z,16.87
2019-03-12T13:04:06.583Z,10.57
2019-03-12T13:06:40.539Z,8.30
2019-03-12T13:09:12.853Z,16.13
2019-03-12T13:11:43.835Z,17.23
2019-03-12T13:14:14.846Z,11.87
2019-03-12T13:16:49.187Z,13.50
2019-03-12T13:19:21.865Z,13.50
2019-03-12T13:21:58.172Z,12.43
2019-03-12T13:24:31.374Z,9.90
2019-03-12T13:27:03.628Z,14.47
2019-03-12T13:29:36.339Z,15.33
2019-03-12T13:32:13.616Z,11.67
2019-03-12T13:38:44.790Z,12.30
2019-03-12T13:41:04.193Z,15.80
2019-03-12T13:43:35.866Z,8.57
2019-03-12T13:46:09.235Z,13.90
2019-03-12T13:48:41.602Z,9.47
2019-03-12T14:01:47.735Z,8.93
2019-03-12T14:04:21.438Z,10.40
2019-03-12T14:06:53.457Z,7.30
2019-03-12T14:09:25.160Z,7.93
2019-03-12T14:11:59.087Z,11.03
2019-03-12T14:14:36.420Z,9.60
2019-03-12T14:17:08.587Z,8.37
2019-03-12T14:19:44.292Z,11.80
2019-03-12T14:22:16.628Z,12.60
2019-03-12T14:24:50.699Z,11.63
2019-03-12T14:27:21.754Z,7.03
2019-03-12T14:33:42.336Z,8.73
2019-03-12T14:45:40.113Z,14.83
2019-03-12T14:48:44.238Z,10.80
2019-03-12T14:51:40.603Z,12.20
2019-03-12T14:54:14.457Z,10.77
2019-03-12T14:56:46.515Z,14.40
2019-03-12T14:59:19.307Z,15.37
2019-03-12T15:01:54.832Z,18.53
2019-03-12T15:11:21.798Z,20.23
2019-03-12T15:13:57.553Z,16.77
2019-03-12T15:16:34.388Z,13.00
2019-03-12T15:19:24.411Z,26.60
2019-03-12T15:22:11.392Z,17.13
2019-03-12T15:24:46.670Z,12.97
2019-03-12T15:33:55.527Z,9.70
2019-03-12T15:36:31.318Z,11.30
2019-03-12T15:39:05.024Z,12.60
2019-03-12T15:41:38.851Z,11.17
2019-03-12T15:44:12.481Z,13.10
2019-03-12T15:46:44.482Z,14.07
2019-03-12T15:49:23.386Z,7.67
2019-03-12T15:52:07.638Z,14.13
2019-03-12T15:54:48.663Z,10.03
2019-03-12T15:57:28.438Z,7.93
2019-03-12T16:00:04.903Z,11.40
2019-03-12T16:02:39.464Z,10.80
2019-03-12T16:05:37.139Z,11.57
2019-03-12T16:11:19.255Z,9.67
2019-03-12T16:17:04.357Z,15.73
2019-03-12T16:19:36.005Z,13.03
2019-03-12T16:22:08.095Z,13.63
2019-03-12T16:24:39.889Z,11.90
2019-03-12T16:27:10.818Z,17.80
2019-03-12T16:29:41.222Z,10.67
2019-03-12T16:32:12.619Z,13.53
2019-03-12T16:34:49.450Z,14.67
2019-03-12T16:38:01.879Z,13.80
2019-03-12T16:40:35.410Z,9.93
2019-03-12T16:46:55.640Z,12.47
2019-03-12T16:49:28.137Z,9.63
2019-03-12T16:51:59.011Z,10.77
2019-03-12T16:54:30.131Z,20.13
2019-03-12T16:57:15.338Z,8.60
2019-03-12T17:03:07.842Z,12.40
2019-03-12T17:05:39.439Z,17.40
2019-03-12T17:08:13.615Z,10.23
2019-03-12T17:10:58.269Z,23.63
2019-03-12T17:13:46.325Z,16.03
2019-03-12T17:16:18.309Z,13.20
2019-03-12T17:18:53.008Z,15.80
2019-03-12T17:21:26.856Z,12.23
2019-03-12T17:24:01.045Z,9.90
2019-03-12T17:26:32.481Z,9.77
2019-03-12T17:29:03.911Z,11.47
2019-03-12T17:31:35.199Z,6.77
2019-03-12T17:34:07.732Z,15.17
2019-03-12T17:36:39.579Z,11.80
2019-03-12T17:39:11.679Z,10.03
2019-03-12T17:41:43.208Z,11.07
2019-03-12T17:44:14.610Z,11.63
2019-03-12T17:46:45.757Z,10.47
2019-03-12T17:49:16.767Z,11.00
2019-03-12T17:55:12.341Z,7.93
2019-03-12T17:57:44.346Z,8.20
2019-03-12T18:00:28.077Z,12.50
2019-03-12T18:02:59.862Z,11.60
2019-03-12T18:05:31.337Z,10.53
2019-03-12T18:08:04.227Z,12.50
2019-03-12T18:10:37.724Z,9.47
2019-03-12T18:13:10.398Z,8.10
2019-03-12T18:15:42.240Z,13.53
2019-03-12T18:18:13.595Z,7.57
2019-03-12T18:20:44.307Z,7.90
2019-03-12T18:23:19.208Z,11.50
2019-03-12T18:25:51.619Z,11.90
2019-03-12T18:28:24.213Z,13.97
2019-03-12T18:30:56.262Z,14.07
2019-03-12T18:33:29.030Z,6.97
2019-03-12T18:36:01.375Z,12.63
2019-03-12T18:38:33.762Z,9.77
2019-03-12T18:41:05.821Z,13.77
2019-03-12T18:43:38.728Z,9.50
2019-03-12T18:46:10.163Z,15.03
2019-03-12T18:48:44.459Z,16.33
2019-03-12T18:51:17.365Z,11.40
2019-03-12T18:53:49.578Z,12.00
2019-03-12T18:56:21.170Z,12.97
2019-03-12T18:58:54.282Z,11.27
2019-03-12T19:01:26.331Z,8.03
2019-03-12T19:04:01.026Z,8.10
2019-03-12T19:06:35.845Z,15.20
2019-03-12T19:09:09.471Z,9.90
2019-03-12T19:11:43.402Z,8.53
2019-03-12T19:14:15.446Z,10.30
2019-03-12T19:16:47.799Z,7.93
2019-03-12T19:19:19.701Z,11.07
2019-03-12T19:21:51.269Z,11.80
2019-03-12T19:24:22.693Z,9.93
2019-03-12T19:26:57.611Z,16.47
2019-03-12T19:29:30.066Z,13.93
2019-03-12T19:32:02.657Z,8.87
2019-03-12T19:34:36.487Z,11.47
2019-03-12T19:37:07.574Z,8.63
2019-03-12T19:39:39.126Z,7.57
2019-03-12T19:42:11.132Z,8.80
2019-03-12T19:44:43.322Z,8.40
2019-03-12T19:47:15.154Z,7.63
2019-03-12T19:49:47.117Z,12.13
2019-03-12T19:52:18.440Z,9.40
2019-03-12T19:54:51.144Z,8.73
2019-03-12T19:57:24.595Z,8.90
2019-03-12T19:59:58.109Z,9.53
2019-03-12T20:02:31.936Z,12.70
2019-03-12T20:05:03.865Z,9.07
2019-03-12T20:07:36.012Z,10.07
2019-03-12T20:10:16.186Z,8.23
2019-03-12T20:13:12.491Z,10.20
2019-03-12T20:16:12.270Z,11.30
2019-03-12T20:19:15.235Z,12.70
2019-03-12T20:22:15.733Z,9.60
2019-03-12T20:25:22.541Z,6.00
2019-03-12T20:28:26.499Z,9.50
2019-03-12T20:31:08.912Z,7.63
2019-03-12T20:34:03.199Z,9.07
2019-03-12T20:37:04.801Z,9.17
2019-03-12T20:39:42.050Z,5.43
2019-03-12T20:42:17.580Z,8.80
2019-03-12T20:45:15.873Z,7.57
2019-03-12T20:48:09.545Z,9.27
2019-03-12T20:51:05.107Z,9.03
2019-03-12T20:53:59.180Z,13.03
2019-03-12T20:57:07.944Z,11.43
2019-03-12T21:00:07.959Z,11.90
2019-03-12T21:03:13.657Z,10.60
2019-03-12T21:06:20.591Z,6.20
2019-03-12T21:09:05.863Z,9.03
2019-03-12T21:12:08.412Z,7.40
2019-03-12T21:15:17.990Z,9.70
2019-03-12T21:18:06.045Z,7.70
2019-03-12T21:20:58.250Z,9.33
2019-03-12T21:23:45.912Z,10.00
2019-03-12T21:26:48.165Z,6.10
2019-03-12T21:29:49.134Z,8.43
2019-03-12T21:32:22.772Z,13.53
2019-03-12T21:34:58.773Z,9.97
2019-03-12T21:37:32.863Z,10.30
2019-03-12T21:40:07.905Z,10.57
2019-03-12T21:42:41.830Z,9.87
2019-03-12T21:45:15.986Z,10.63
2019-03-12T21:47:50.310Z,10.07
2019-03-12T21:50:24.374Z,7.73
2019-03-12T21:52:57.776Z,9.77
2019-03-12T21:55:30.491Z,10.63
2019-03-12T21:58:05.863Z,6.03
2019-03-12T22:00:38.324Z,6.50
2019-03-12T22:03:11.121Z,8.23
2019-03-12T22:05:42.601Z,10.50
2019-03-12T22:08:15.704Z,13.13
2019-03-12T22:10:46.859Z,8.87
2019-03-12T22:13:19.671Z,9.73
2019-03-12T22:15:53.634Z,8.43
2019-03-12T22:18:25.093Z,6.20
2019-03-12T22:20:57.500Z,6.07
2019-03-12T22:23:31.263Z,9.60
2019-03-12T22:26:04.456Z,10.27
2019-03-12T22:28:41.113Z,7.13
2019-03-12T22:31:17.876Z,10.90
2019-03-12T22:33:50.106Z,7.50
2019-03-12T22:36:23.253Z,8.77
2019-03-12T22:38:57.599Z,9.13
2019-03-12T22:41:32.037Z,9.27
2019-03-12T22:44:04.436Z,9.83
2019-03-12T22:46:35.734Z,12.03
2019-03-12T22:49:08.284Z,9.73
2019-03-12T22:51:41.741Z,7.00
2019-03-12T22:54:15.934Z,5.50
2019-03-12T22:56:46.922Z,7.13
2019-03-12T22:59:18.900Z,11.33
2019-03-12T23:01:51.845Z,8.07
2019-03-12T23:04:23.971Z,9.97
2019-03-12T23:06:55.075Z,14.37
2019-03-12T23:09:26.212Z,12.90
2019-03-12T23:11:58.890Z,8.20
2019-03-12T23:14:31.233Z,7.53
2019-03-12T23:17:03.100Z,5.47
2019-03-12T23:19:35.376Z,5.90
2019-03-12T23:22:07.705Z,7.37
2019-03-12T23:24:38.287Z,11.80
2019-03-12T23:27:10.966Z,8.63
2019-03-12T23:29:42.274Z,10.97
2019-03-12T23:32:15.294Z,9.43
2019-03-12T23:34:48.879Z,7.37
2019-03-12T23:37:19.941Z,7.03
2019-03-12T23:39:51.833Z,8.47
2019-03-12T23:42:22.752Z,6.77
2019-03-12T23:44:54.572Z,7.87
2019-03-12T23:47:27.265Z,8.20
2019-03-12T23:49:59.055Z,10.20
2019-03-12T23:52:31.668Z,11.00
2019-03-12T23:55:04.711Z,8.73
2019-03-12T23:57:36.684Z,10.03
